sensor_id;sensor_type;location;lat;lon;timestamp;pressure;altitude;pressure_sealevel;temperature;humidity
5484;BME280;2764;48.794;8.326;2022-12-07T00:00:39;100083.69;;;3.95;100.00
5484;BME280;2764;48.794;8.326;2022-12-07T00:01:42;100071.72;;;3.88;100.00
5484;BME280;2764;48.794;8.326;2022-12-07T00:02:44;100090.63;;;3.93;100.00
5484;BME280;2764;48.794;8.326;2022-12-07T00:03:47;100086.31;;;3.93;100.00
5484;BME280;2764;48.794;8.326;2022-12-07T00:04:49;100091.50;;;3.93;100.00
5484;BME280;2764;48.794;8.326;2022-12-07T00:05:51;100092.31;;;3.94;100.00
5484;BME280;2764;48.794;8.326;2022-12-07T00:06:53;100087.16;;;3.94;100.00
5484;BME280;2764;48.794;8.326;2022-12-07T00:07:55;100087.16;;;3.94;100.00
5484;BME280;2764;48.794;8.326;2022-12-07T00:08:56;100088.88;;;3.95;100.00
5484;BME280;2764;48.794;8.326;2022-12-07T00:09:58;100078.53;;;3.95;100.00
5484;BME280;2764;48.794;8.326;2022-12-07T00:11:08;100085.44;;;3.96;100.00
5484;BME280;2764;48.794;8.326;2022-12-07T00:12:10;100081.97;;;3.95;100.00
5484;BME280;2764;48.794;8.326;2022-12-07T00:13:13;100081.09;;;3.96;100.00
5484;BME280;2764;48.794;8.326;2022-12-07T00:14:15;100078.53;;;3.95;100.00
5484;BME280;2764;48.794;8.326;2022-12-07T00:15:17;100079.41;;;3.95;100.00
5484;BME280;2764;48.794;8.326;2022-12-07T00:16:21;100078.50;;;3.96;100.00
5484;BME280;2764;48.794;8.326;2022-12-07T00:17:23;100082.84;;;3.96;100.00
5484;BME280;2764;48.794;8.326;2022-12-07T00:18:25;100083.72;;;3.92;100.00
5484;BME280;2764;48.794;8.326;2022-12-07T00:19:26;100080.25;;;3.96;100.00
5484;BME280;2764;48.794;8.326;2022-12-07T00:20:28;100081.97;;;3.95;100.00
5484;BME280;2764;48.794;8.326;2022-12-07T00:21:32;100073.31;;;3.96;100.00
5484;BME280;2764;48.794;8.326;2022-12-07T00:22:34;100079.41;;;3.95;100.00
5484;BME280;2764;48.794;8.326;2022-12-07T00:23:36;100082.84;;;3.96;100.00
5484;BME280;2764;48.794;8.326;2022-12-07T00:24:38;100077.66;;;3.96;100.00
5484;BME280;2764;48.794;8.326;2022-12-07T00:25:40;100069.09;;;3.89;100.00
5484;BME280;2764;48.794;8.326;2022-12-07T00:26:42;100084.56;;;3.95;100.00
5484;BME280;2764;48.794;8.326;2022-12-07T00:27:44;100081.13;;;3.95;100.00
5484;BME280;2764;48.794;8.326;2022-12-07T00:28:47;100081.09;;;3.96;100.00
5484;BME280;2764;48.794;8.326;2022-12-07T00:29:49;100081.09;;;3.96;100.00
5484;BME280;2764;48.794;8.326;2022-12-07T00:30:51;100073.34;;;3.95;100.00
5484;BME280;2764;48.794;8.326;2022-12-07T00:31:52;100081.09;;;3.96;100.00
5484;BME280;2764;48.794;8.326;2022-12-07T00:32:54;100084.56;;;3.95;100.00
5484;BME280;2764;48.794;8.326;2022-12-07T00:33:57;100076.81;;;3.95;100.00
5484;BME280;2764;48.794;8.326;2022-12-07T00:34:58;100081.97;;;3.95;100.00
5484;BME280;2764;48.794;8.326;2022-12-07T00:36:01;100074.22;;;3.94;100.00
5484;BME280;2764;48.794;8.326;2022-12-07T00:37:04;100088.88;;;3.95;100.00
5484;BME280;2764;48.794;8.326;2022-12-07T00:38:05;100069.03;;;3.94;100.00
5484;BME280;2764;48.794;8.326;2022-12-07T00:39:08;100076.81;;;3.94;100.00
5484;BME280;2764;48.794;8.326;2022-12-07T00:40:11;100075.97;;;3.92;100.00
5484;BME280;2764;48.794;8.326;2022-12-07T00:41:15;100082.03;;;3.91;100.00
5484;BME280;2764;48.794;8.326;2022-12-07T00:42:17;100073.44;;;3.87;100.00
5484;BME280;2764;48.794;8.326;2022-12-07T00:43:19;100072.63;;;3.82;100.00
5484;BME280;2764;48.794;8.326;2022-12-07T00:44:21;100073.50;;;3.81;100.00
5484;BME280;2764;48.794;8.326;2022-12-07T00:45:22;100069.31;;;3.71;100.00
5484;BME280;2764;48.794;8.326;2022-12-07T00:46:25;100084.78;;;3.77;100.00
5484;BME280;2764;48.794;8.326;2022-12-07T00:47:27;100073.59;;;3.75;100.00
5484;BME280;2764;48.794;8.326;2022-12-07T00:48:29;100067.56;;;3.73;100.00
5484;BME280;2764;48.794;8.326;2022-12-07T00:49:30;100073.63;;;3.72;100.00
5484;BME280;2764;48.794;8.326;2022-12-07T00:50:32;100072.75;;;3.72;100.00
5484;BME280;2764;48.794;8.326;2022-12-07T00:51:34;100078.81;;;3.71;100.00
5484;BME280;2764;48.794;8.326;2022-12-07T00:52:36;100081.41;;;3.69;100.00
5484;BME280;2764;48.794;8.326;2022-12-07T00:53:38;100079.69;;;3.70;100.00
5484;BME280;2764;48.794;8.326;2022-12-07T00:54:42;100077.94;;;3.69;100.00
5484;BME280;2764;48.794;8.326;2022-12-07T00:55:44;100074.53;;;3.68;100.00
5484;BME280;2764;48.794;8.326;2022-12-07T00:56:46;100073.66;;;3.68;100.00
5484;BME280;2764;48.794;8.326;2022-12-07T00:57:48;100079.69;;;3.68;100.00
5484;BME280;2764;48.794;8.326;2022-12-07T00:58:55;100075.34;;;3.69;100.00
5484;BME280;2764;48.794;8.326;2022-12-07T00:59:57;100073.66;;;3.68;100.00
5484;BME280;2764;48.794;8.326;2022-12-07T01:01:00;100075.41;;;3.66;100.00
5484;BME280;2764;48.794;8.326;2022-12-07T01:02:03;100072.81;;;3.67;100.00
5484;BME280;2764;48.794;8.326;2022-12-07T01:03:06;100071.06;;;3.66;100.00
5484;BME280;2764;48.794;8.326;2022-12-07T01:04:08;100072.81;;;3.66;100.00
5484;BME280;2764;48.794;8.326;2022-12-07T01:05:10;100074.56;;;3.65;100.00
5484;BME280;2764;48.794;8.326;2022-12-07T01:06:17;100071.97;;;3.65;100.00
5484;BME280;2764;48.794;8.326;2022-12-07T01:07:19;100067.66;;;3.64;100.00
5484;BME280;2764;48.794;8.326;2022-12-07T01:08:21;100072.81;;;3.64;100.00
5484;BME280;2764;48.794;8.326;2022-12-07T01:09:23;100078.84;;;3.65;100.00
5484;BME280;2764;48.794;8.326;2022-12-07T01:10:26;100082.34;;;3.62;100.00
5484;BME280;2764;48.794;8.326;2022-12-07T01:11:29;100073.72;;;3.63;100.00
5484;BME280;2764;48.794;8.326;2022-12-07T01:12:31;100066.84;;;3.61;100.00
5484;BME280;2764;48.794;8.326;2022-12-07T01:13:34;100070.25;;;3.63;100.00
5484;BME280;2764;48.794;8.326;2022-12-07T01:14:36;100061.75;;;3.54;100.00
5484;BME280;2764;48.794;8.326;2022-12-07T01:15:42;100079.75;;;3.62;100.00
5484;BME280;2764;48.794;8.326;2022-12-07T01:16:43;100070.31;;;3.58;100.00
5484;BME280;2764;48.794;8.326;2022-12-07T01:17:45;100072.00;;;3.61;100.00
5484;BME280;2764;48.794;8.326;2022-12-07T01:18:50;100078.06;;;3.58;100.00
5484;BME280;2764;48.794;8.326;2022-12-07T01:19:52;100078.06;;;3.61;100.00
5484;BME280;2764;48.794;8.326;2022-12-07T01:21:01;100073.72;;;3.62;100.00
5484;BME280;2764;48.794;8.326;2022-12-07T01:22:04;100072.00;;;3.62;100.00
5484;BME280;2764;48.794;8.326;2022-12-07T01:23:06;100072.88;;;3.60;100.00
5484;BME280;2764;48.794;8.326;2022-12-07T01:24:10;100075.47;;;3.60;100.00
5484;BME280;2764;48.794;8.326;2022-12-07T01:25:12;100079.81;;;3.59;100.00
5484;BME280;2764;48.794;8.326;2022-12-07T01:26:16;100078.06;;;3.58;100.00
5484;BME280;2764;48.794;8.326;2022-12-07T01:27:19;100073.75;;;3.59;100.00
5484;BME280;2764;48.794;8.326;2022-12-07T01:28:20;100079.81;;;3.59;100.00
5484;BME280;2764;48.794;8.326;2022-12-07T01:29:22;100080.66;;;3.58;100.00
5484;BME280;2764;48.794;8.326;2022-12-07T01:30:24;100083.25;;;3.58;100.00
5484;BME280;2764;48.794;8.326;2022-12-07T01:31:27;100087.56;;;3.59;100.00
5484;BME280;2764;48.794;8.326;2022-12-07T01:32:29;100083.25;;;3.58;100.00
5484;BME280;2764;48.794;8.326;2022-12-07T01:33:33;100078.97;;;3.55;100.00
5484;BME280;2764;48.794;8.326;2022-12-07T01:34:35;100088.41;;;3.58;100.00
5484;BME280;2764;48.794;8.326;2022-12-07T01:35:37;100081.53;;;3.59;100.00
5484;BME280;2764;48.794;8.326;2022-12-07T01:36:39;100083.22;;;3.60;100.00
5484;BME280;2764;48.794;8.326;2022-12-07T01:37:41;100098.00;;;3.47;100.00
5484;BME280;2764;48.794;8.326;2022-12-07T01:38:43;100094.41;;;3.63;100.00
5484;BME280;2764;48.794;8.326;2022-12-07T01:39:48;100082.41;;;3.56;100.00
5484;BME280;2764;48.794;8.326;2022-12-07T01:40:55;100092.69;;;3.64;100.00
5484;BME280;2764;48.794;8.326;2022-12-07T01:41:57;100095.28;;;3.64;100.00
5484;BME280;2764;48.794;8.326;2022-12-07T01:42:58;100090.13;;;3.61;100.00
5484;BME280;2764;48.794;8.326;2022-12-07T01:44:11;100097.84;;;3.64;100.00
5484;BME280;2764;48.794;8.326;2022-12-07T01:45:39;100095.28;;;3.64;100.00
5484;BME280;2764;48.794;8.326;2022-12-07T01:46:47;100094.41;;;3.62;100.00
5484;BME280;2764;48.794;8.326;2022-12-07T01:47:55;100094.41;;;3.62;100.00
5484;BME280;2764;48.794;8.326;2022-12-07T01:48:58;100099.56;;;3.62;100.00
5484;BME280;2764;48.794;8.326;2022-12-07T01:50:00;100088.44;;;3.55;100.00
5484;BME280;2764;48.794;8.326;2022-12-07T01:51:06;100098.72;;;3.60;100.00
5484;BME280;2764;48.794;8.326;2022-12-07T01:52:16;100105.66;;;3.59;100.00
5484;BME280;2764;48.794;8.326;2022-12-07T01:53:21;100101.34;;;3.58;100.00
5484;BME280;2764;48.794;8.326;2022-12-07T01:54:24;100100.50;;;3.56;100.00
5484;BME280;2764;48.794;8.326;2022-12-07T01:55:27;100097.94;;;3.54;100.00
5484;BME280;2764;48.794;8.326;2022-12-07T01:56:29;100103.13;;;3.54;100.00
5484;BME280;2764;48.794;8.326;2022-12-07T01:57:34;100103.94;;;3.55;100.00
5484;BME280;2764;48.794;8.326;2022-12-07T01:58:38;100105.69;;;3.53;100.00
5484;BME280;2764;48.794;8.326;2022-12-07T01:59:41;100100.56;;;3.51;100.00
5484;BME280;2764;48.794;8.326;2022-12-07T02:00:44;100098.84;;;3.49;100.00
5484;BME280;2764;48.794;8.326;2022-12-07T02:01:45;100104.00;;;3.52;100.00
5484;BME280;2764;48.794;8.326;2022-12-07T02:02:58;100097.97;;;3.50;100.00
5484;BME280;2764;48.794;8.326;2022-12-07T02:04:02;100099.69;;;3.48;100.00
5484;BME280;2764;48.794;8.326;2022-12-07T02:05:05;100097.13;;;3.48;100.00
5484;BME280;2764;48.794;8.326;2022-12-07T02:06:08;100100.56;;;3.48;100.00
5484;BME280;2764;48.794;8.326;2022-12-07T02:07:11;100097.16;;;3.46;100.00
5484;BME280;2764;48.794;8.326;2022-12-07T02:08:13;100079.94;;;3.41;100.00
5484;BME280;2764;48.794;8.326;2022-12-07T02:09:16;100091.09;;;3.46;100.00
5484;BME280;2764;48.794;8.326;2022-12-07T02:10:19;100088.53;;;3.46;100.00
5484;BME280;2764;48.794;8.326;2022-12-07T02:11:22;100084.25;;;3.45;100.00
5484;BME280;2764;48.794;8.326;2022-12-07T02:12:24;100088.56;;;3.44;100.00
5484;BME280;2764;48.794;8.326;2022-12-07T02:13:29;100087.69;;;3.44;100.00
5484;BME280;2764;48.794;8.326;2022-12-07T02:14:32;100086.81;;;3.43;100.00
5484;BME280;2764;48.794;8.326;2022-12-07T02:15:45;100085.97;;;3.41;100.00
5484;BME280;2764;48.794;8.326;2022-12-07T02:17:46;100088.56;;;3.41;100.00
5484;BME280;2764;48.794;8.326;2022-12-07T02:18:30;100072.25;;;3.35;100.00
5484;BME280;2764;48.794;8.326;2022-12-07T02:21:24;100083.44;;;3.40;100.00
5484;BME280;2764;48.794;8.326;2022-12-07T02:30:12;100063.66;;;3.34;100.00
5484;BME280;2764;48.794;8.326;2022-12-07T02:31:19;100077.38;;;3.39;100.00
5484;BME280;2764;48.794;8.326;2022-12-07T02:32:33;100073.94;;;3.40;100.00
5484;BME280;2764;48.794;8.326;2022-12-07T02:33:44;100072.22;;;3.39;100.00
5484;BME280;2764;48.794;8.326;2022-12-07T02:35:24;100083.44;;;3.40;100.00
5484;BME280;2764;48.794;8.326;2022-12-07T02:36:23;100072.19;;;3.41;100.00
5484;BME280;2764;48.794;8.326;2022-12-07T02:39:01;100066.25;;;3.36;100.00
5484;BME280;2764;48.794;8.326;2022-12-07T02:41:18;100079.16;;;3.36;100.00
5484;BME280;2764;48.794;8.326;2022-12-07T02:42:28;100066.22;;;3.34;100.00
5484;BME280;2764;48.794;8.326;2022-12-07T02:43:42;100074.03;;;3.31;100.00
5484;BME280;2764;48.794;8.326;2022-12-07T02:44:46;100068.00;;;3.31;100.00
5484;BME280;2764;48.794;8.326;2022-12-07T02:45:51;100057.69;;;3.25;100.00
5484;BME280;2764;48.794;8.326;2022-12-07T02:47:01;100068.94;;;3.22;100.00
5484;BME280;2764;48.794;8.326;2022-12-07T02:48:05;100071.53;;;3.21;100.00
5484;BME280;2764;48.794;8.326;2022-12-07T02:49:09;100067.28;;;3.14;100.00
5484;BME280;2764;48.794;8.326;2022-12-07T02:50:12;100073.28;;;3.16;100.00
5484;BME280;2764;48.794;8.326;2022-12-07T02:51:14;100069.88;;;3.14;100.00
5484;BME280;2764;48.794;8.326;2022-12-07T02:52:15;100069.03;;;3.12;100.00
5484;BME280;2764;48.794;8.326;2022-12-07T02:53:40;100067.31;;;3.09;100.00
5484;BME280;2764;48.794;8.326;2022-12-07T02:54:42;100066.50;;;3.06;100.00
5484;BME280;2764;48.794;8.326;2022-12-07T02:55:44;100065.63;;;3.07;100.00
5484;BME280;2764;48.794;8.326;2022-12-07T02:56:53;100059.63;;;3.03;100.00
5484;BME280;2764;48.794;8.326;2022-12-07T03:00:21;100061.38;;;3.00;100.00
5484;BME280;2764;48.794;8.326;2022-12-07T03:02:03;100056.25;;;2.95;100.00
5484;BME280;2764;48.794;8.326;2022-12-07T03:03:12;100063.19;;;2.90;100.00
5484;BME280;2764;48.794;8.326;2022-12-07T03:05:57;100055.41;;;2.92;100.00
5484;BME280;2764;48.794;8.326;2022-12-07T03:07:11;100057.16;;;2.88;100.00
5484;BME280;2764;48.794;8.326;2022-12-07T03:08:30;100055.44;;;2.85;100.00
5484;BME280;2764;48.794;8.326;2022-12-07T03:09:45;100064.09;;;2.81;100.00
5484;BME280;2764;48.794;8.326;2022-12-07T03:11:10;100058.94;;;2.81;100.00
5484;BME280;2764;48.794;8.326;2022-12-07T03:12:32;100056.34;;;2.81;100.00
5484;BME280;2764;48.794;8.326;2022-12-07T03:14:00;100055.50;;;2.82;100.00
5484;BME280;2764;48.794;8.326;2022-12-07T03:15:10;100057.19;;;2.83;100.00
5484;BME280;2764;48.794;8.326;2022-12-07T03:17:24;100052.91;;;2.82;100.00
5484;BME280;2764;48.794;8.326;2022-12-07T03:18:31;100055.50;;;2.82;100.00
5484;BME280;2764;48.794;8.326;2022-12-07T03:19:34;100054.59;;;2.83;100.00
5484;BME280;2764;48.794;8.326;2022-12-07T03:20:39;100068.34;;;2.90;100.00
5484;BME280;2764;48.794;8.326;2022-12-07T03:21:44;100061.44;;;2.94;100.00
5484;BME280;2764;48.794;8.326;2022-12-07T03:22:47;100069.16;;;2.95;100.00
5484;BME280;2764;48.794;8.326;2022-12-07T03:23:55;100069.16;;;2.97;100.00
5484;BME280;2764;48.794;8.326;2022-12-07T03:25:01;100074.31;;;2.97;100.00
5484;BME280;2764;48.794;8.326;2022-12-07T03:26:08;100064.00;;;2.95;100.00
5484;BME280;2764;48.794;8.326;2022-12-07T03:27:22;100062.28;;;2.96;100.00
5484;BME280;2764;48.794;8.326;2022-12-07T03:28:31;100059.66;;;2.99;100.00
5484;BME280;2764;48.794;8.326;2022-12-07T03:29:40;100043.28;;;3.00;100.00
5484;BME280;2764;48.794;8.326;2022-12-07T03:30:56;100049.28;;;3.02;100.00
5484;BME280;2764;48.794;8.326;2022-12-07T03:32:12;100051.88;;;3.03;100.00
5484;BME280;2764;48.794;8.326;2022-12-07T03:33:27;100046.72;;;3.03;100.00
5484;BME280;2764;48.794;8.326;2022-12-07T03:35:52;100047.59;;;3.01;100.00
5484;BME280;2764;48.794;8.326;2022-12-07T03:37:05;100046.72;;;3.00;100.00
5484;BME280;2764;48.794;8.326;2022-12-07T03:38:22;100017.66;;;2.78;100.00
5484;BME280;2764;48.794;8.326;2022-12-07T03:39:31;100051.03;;;3.00;100.00
5484;BME280;2764;48.794;8.326;2022-12-07T03:40:49;100051.03;;;3.00;100.00
5484;BME280;2764;48.794;8.326;2022-12-07T03:41:54;100045.94;;;2.94;100.00
5484;BME280;2764;48.794;8.326;2022-12-07T03:42:58;100057.94;;;3.01;100.00
5484;BME280;2764;48.794;8.326;2022-12-07T03:44:03;100063.09;;;3.01;100.00
5484;BME280;2764;48.794;8.326;2022-12-07T03:45:08;100055.34;;;2.98;100.00
5484;BME280;2764;48.794;8.326;2022-12-07T03:46:19;100060.53;;;2.99;100.00
5484;BME280;2764;48.794;8.326;2022-12-07T03:47:29;100056.19;;;3.00;100.00
5484;BME280;2764;48.794;8.326;2022-12-07T03:48:46;100063.13;;;2.99;100.00
5484;BME280;2764;48.794;8.326;2022-12-07T03:49:57;100051.91;;;2.97;100.00
5484;BME280;2764;48.794;8.326;2022-12-07T03:51:15;100057.97;;;2.96;100.00
5484;BME280;2764;48.794;8.326;2022-12-07T03:52:34;100056.25;;;2.95;100.00
5484;BME280;2764;48.794;8.326;2022-12-07T03:53:42;100047.66;;;2.93;100.00
5484;BME280;2764;48.794;8.326;2022-12-07T03:55:54;100044.22;;;2.91;100.00
5484;BME280;2764;48.794;8.326;2022-12-07T03:56:58;100045.97;;;2.92;100.00
5484;BME280;2764;48.794;8.326;2022-12-07T03:58:04;100040.81;;;2.89;100.00
5484;BME280;2764;48.794;8.326;2022-12-07T03:59:07;100038.19;;;2.91;100.00
5484;BME280;2764;48.794;8.326;2022-12-07T04:00:11;100037.34;;;2.89;100.00
5484;BME280;2764;48.794;8.326;2022-12-07T04:01:13;100036.47;;;2.91;100.00
5484;BME280;2764;48.794;8.326;2022-12-07T04:02:15;100033.88;;;2.93;100.00
5484;BME280;2764;48.794;8.326;2022-12-07T04:03:17;100039.03;;;2.94;100.00
5484;BME280;2764;48.794;8.326;2022-12-07T04:04:19;100036.47;;;2.94;100.00
5484;BME280;2764;48.794;8.326;2022-12-07T04:05:21;100030.44;;;2.94;100.00
5484;BME280;2764;48.794;8.326;2022-12-07T04:06:23;100028.69;;;2.93;100.00
5484;BME280;2764;48.794;8.326;2022-12-07T04:07:25;100037.34;;;2.92;100.00
5484;BME280;2764;48.794;8.326;2022-12-07T04:08:27;100033.91;;;2.90;100.00
5484;BME280;2764;48.794;8.326;2022-12-07T04:09:29;100033.09;;;2.84;100.00
5484;BME280;2764;48.794;8.326;2022-12-07T04:10:31;100035.69;;;2.81;100.00
5484;BME280;2764;48.794;8.326;2022-12-07T04:11:33;100032.31;;;2.73;100.00
5484;BME280;2764;48.794;8.326;2022-12-07T04:12:34;100028.94;;;2.65;100.00
5484;BME280;2764;48.794;8.326;2022-12-07T04:13:36;100029.88;;;2.55;100.00
5484;BME280;2764;48.794;8.326;2022-12-07T04:14:58;100041.13;;;2.42;100.00
5484;BME280;2764;48.794;8.326;2022-12-07T04:15:59;100029.16;;;2.31;100.00
5484;BME280;2764;48.794;8.326;2022-12-07T04:17:01;100024.88;;;2.27;100.00
5484;BME280;2764;48.794;8.326;2022-12-07T04:18:03;100029.22;;;2.20;100.00
5484;BME280;2764;48.794;8.326;2022-12-07T04:19:05;100033.53;;;2.20;100.00
5484;BME280;2764;48.794;8.326;2022-12-07T04:20:08;100038.72;;;2.15;100.00
5484;BME280;2764;48.794;8.326;2022-12-07T04:21:09;100032.75;;;2.07;100.00
5484;BME280;2764;48.794;8.326;2022-12-07T04:22:11;100031.06;;;1.97;100.00
5484;BME280;2764;48.794;8.326;2022-12-07T04:23:13;100031.94;;;1.91;100.00
5484;BME280;2764;48.794;8.326;2022-12-07T04:24:15;100038.00;;;1.86;100.00
5484;BME280;2764;48.794;8.326;2022-12-07T04:25:19;100036.28;;;1.80;100.00
5484;BME280;2764;48.794;8.326;2022-12-07T04:26:21;100043.19;;;1.77;100.00
5484;BME280;2764;48.794;8.326;2022-12-07T04:27:23;100050.06;;;1.73;100.00
5484;BME280;2764;48.794;8.326;2022-12-07T04:28:25;100043.19;;;1.69;100.00
5484;BME280;2764;48.794;8.326;2022-12-07T04:29:27;100044.94;;;1.70;100.00
5484;BME280;2764;48.794;8.326;2022-12-07T04:30:29;100036.34;;;1.64;100.00
5484;BME280;2764;48.794;8.326;2022-12-07T04:31:31;100037.16;;;1.73;100.00
5484;BME280;2764;48.794;8.326;2022-12-07T04:32:33;100040.63;;;1.69;100.00
5484;BME280;2764;48.794;8.326;2022-12-07T04:33:35;100043.22;;;1.63;100.00
5484;BME280;2764;48.794;8.326;2022-12-07T04:34:37;100028.69;;;1.42;100.00
5484;BME280;2764;48.794;8.326;2022-12-07T04:35:39;100038.97;;;1.56;100.00
5484;BME280;2764;48.794;8.326;2022-12-07T04:36:41;100040.66;;;1.57;100.00
5484;BME280;2764;48.794;8.326;2022-12-07T04:37:43;100034.66;;;1.54;100.00
5484;BME280;2764;48.794;8.326;2022-12-07T04:38:45;100032.09;;;1.54;100.00
5484;BME280;2764;48.794;8.326;2022-12-07T04:39:47;100031.22;;;1.58;100.00
5484;BME280;2764;48.794;8.326;2022-12-07T04:40:49;100040.66;;;1.56;100.00
5484;BME280;2764;48.794;8.326;2022-12-07T04:41:51;100029.50;;;1.54;100.00
5484;BME280;2764;48.794;8.326;2022-12-07T04:42:53;100030.38;;;1.54;100.00
5484;BME280;2764;48.794;8.326;2022-12-07T04:43:59;100033.78;;;1.59;100.00
5484;BME280;2764;48.794;8.326;2022-12-07T04:45:02;100035.50;;;1.60;100.00
5484;BME280;2764;48.794;8.326;2022-12-07T04:46:04;100030.34;;;1.56;100.00
5484;BME280;2764;48.794;8.326;2022-12-07T04:47:06;100033.78;;;1.61;100.00
5484;BME280;2764;48.794;8.326;2022-12-07T04:48:09;100042.38;;;1.63;100.00
5484;BME280;2764;48.794;8.326;2022-12-07T04:49:12;100042.38;;;1.63;100.00
5484;BME280;2764;48.794;8.326;2022-12-07T04:50:15;100040.66;;;1.63;100.00
5484;BME280;2764;48.794;8.326;2022-12-07T04:51:20;100045.78;;;1.65;100.00
5484;BME280;2764;48.794;8.326;2022-12-07T04:52:22;100042.34;;;1.64;100.00
5484;BME280;2764;48.794;8.326;2022-12-07T04:53:24;100046.63;;;1.64;100.00
5484;BME280;2764;48.794;8.326;2022-12-07T04:54:25;100043.22;;;1.62;100.00
5484;BME280;2764;48.794;8.326;2022-12-07T04:55:28;100044.94;;;1.63;100.00
5484;BME280;2764;48.794;8.326;2022-12-07T04:56:30;100047.53;;;1.61;100.00
5484;BME280;2764;48.794;8.326;2022-12-07T04:57:32;100048.38;;;1.62;100.00
5484;BME280;2764;48.794;8.326;2022-12-07T04:58:34;100045.81;;;1.63;100.00
5484;BME280;2764;48.794;8.326;2022-12-07T04:59:36;100049.22;;;1.64;100.00
5484;BME280;2764;48.794;8.326;2022-12-07T05:00:45;100050.09;;;1.66;100.00
5484;BME280;2764;48.794;8.326;2022-12-07T05:01:47;100048.38;;;1.65;100.00
5484;BME280;2764;48.794;8.326;2022-12-07T05:02:49;100044.09;;;1.65;100.00
5484;BME280;2764;48.794;8.326;2022-12-07T05:03:51;100051.78;;;1.64;100.00
5484;BME280;2764;48.794;8.326;2022-12-07T05:04:53;100045.78;;;1.65;100.00
5484;BME280;2764;48.794;8.326;2022-12-07T05:05:54;100044.06;;;1.64;100.00
5484;BME280;2764;48.794;8.326;2022-12-07T05:06:56;100048.38;;;1.65;100.00
5484;BME280;2764;48.794;8.326;2022-12-07T05:07:58;100034.66;;;1.58;100.00
5484;BME280;2764;48.794;8.326;2022-12-07T05:09:00;100046.63;;;1.71;100.00
5484;BME280;2764;48.794;8.326;2022-12-07T05:10:02;100054.34;;;1.76;100.00
5484;BME280;2764;48.794;8.326;2022-12-07T05:11:06;100050.06;;;1.75;100.00
5484;BME280;2764;48.794;8.326;2022-12-07T05:12:08;100050.91;;;1.75;100.00
5484;BME280;2764;48.794;8.326;2022-12-07T05:13:10;100050.91;;;1.74;100.00
5484;BME280;2764;48.794;8.326;2022-12-07T05:14:17;100051.78;;;1.74;100.00
5484;BME280;2764;48.794;8.326;2022-12-07T05:15:20;100054.34;;;1.74;100.00
5484;BME280;2764;48.794;8.326;2022-12-07T05:16:21;100045.75;;;1.77;100.00
5484;BME280;2764;48.794;8.326;2022-12-07T05:17:23;100051.75;;;1.76;100.00
5484;BME280;2764;48.794;8.326;2022-12-07T05:18:25;100049.19;;;1.79;100.00
5484;BME280;2764;48.794;8.326;2022-12-07T05:19:27;100031.16;;;1.74;100.00
5484;BME280;2764;48.794;8.326;2022-12-07T05:20:29;100050.06;;;1.79;100.00
5484;BME280;2764;48.794;8.326;2022-12-07T05:21:30;100045.72;;;1.80;100.00
5484;BME280;2764;48.794;8.326;2022-12-07T05:22:33;100038.00;;;1.81;100.00
5484;BME280;2764;48.794;8.326;2022-12-07T05:23:35;100043.16;;;1.83;100.00
5484;BME280;2764;48.794;8.326;2022-12-07T05:24:37;100039.72;;;1.82;100.00
5484;BME280;2764;48.794;8.326;2022-12-07T05:25:40;100038.84;;;1.85;100.00
5484;BME280;2764;48.794;8.326;2022-12-07T05:26:42;100045.72;;;1.86;100.00
5484;BME280;2764;48.794;8.326;2022-12-07T05:27:44;100048.31;;;1.86;100.00
5484;BME280;2764;48.794;8.326;2022-12-07T05:28:50;100035.38;;;1.90;100.00
5484;BME280;2764;48.794;8.326;2022-12-07T05:29:53;100041.38;;;1.94;100.00
5484;BME280;2764;48.794;8.326;2022-12-07T05:30:54;100043.09;;;1.98;100.00
5484;BME280;2764;48.794;8.326;2022-12-07T05:32:00;100041.38;;;2.00;100.00
5484;BME280;2764;48.794;8.326;2022-12-07T05:33:02;100043.06;;;2.04;100.00
5484;BME280;2764;48.794;8.326;2022-12-07T05:34:05;100043.94;;;2.04;100.00
5484;BME280;2764;48.794;8.326;2022-12-07T05:35:07;100044.75;;;2.05;100.00
5484;BME280;2764;48.794;8.326;2022-12-07T05:36:08;100043.94;;;2.04;100.00
5484;BME280;2764;48.794;8.326;2022-12-07T05:37:10;100046.50;;;2.06;100.00
5484;BME280;2764;48.794;8.326;2022-12-07T05:38:12;100048.22;;;2.07;100.00
5484;BME280;2764;48.794;8.326;2022-12-07T05:39:14;100046.50;;;2.09;100.00
5484;BME280;2764;48.794;8.326;2022-12-07T05:40:16;100045.63;;;2.05;100.00
5484;BME280;2764;48.794;8.326;2022-12-07T05:41:18;100058.53;;;2.07;100.00
5484;BME280;2764;48.794;8.326;2022-12-07T05:42:40;100047.34;;;2.08;100.00
5484;BME280;2764;48.794;8.326;2022-12-07T05:43:42;100049.06;;;2.07;100.00
5484;BME280;2764;48.794;8.326;2022-12-07T05:44:45;100055.09;;;2.06;100.00
5484;BME280;2764;48.794;8.326;2022-12-07T05:45:47;100044.78;;;2.06;100.00
5484;BME280;2764;48.794;8.326;2022-12-07T05:46:49;100043.91;;;2.09;100.00
5484;BME280;2764;48.794;8.326;2022-12-07T05:47:51;100018.19;;;1.89;100.00
5484;BME280;2764;48.794;8.326;2022-12-07T05:48:53;100019.03;;;1.91;100.00
5484;BME280;2764;48.794;8.326;2022-12-07T05:49:55;100045.63;;;2.08;100.00
5484;BME280;2764;48.794;8.326;2022-12-07T05:50:57;100050.78;;;2.05;100.00
5484;BME280;2764;48.794;8.326;2022-12-07T05:51:59;100042.19;;;2.06;100.00
5484;BME280;2764;48.794;8.326;2022-12-07T05:53:00;100053.34;;;2.10;100.00
5484;BME280;2764;48.794;8.326;2022-12-07T05:54:02;100048.19;;;2.11;100.00
5484;BME280;2764;48.794;8.326;2022-12-07T05:55:04;100052.50;;;2.11;100.00
5484;BME280;2764;48.794;8.326;2022-12-07T05:56:08;100051.66;;;2.09;100.00
5484;BME280;2764;48.794;8.326;2022-12-07T05:57:10;100046.50;;;2.04;100.00
5484;BME280;2764;48.794;8.326;2022-12-07T05:58:11;100045.66;;;2.02;100.00
5484;BME280;2764;48.794;8.326;2022-12-07T05:59:32;100050.78;;;2.05;100.00
5484;BME280;2764;48.794;8.326;2022-12-07T06:00:34;100053.38;;;2.07;100.00
5484;BME280;2764;48.794;8.326;2022-12-07T06:01:36;100050.78;;;2.08;100.00
5484;BME280;2764;48.794;8.326;2022-12-07T06:02:39;100050.75;;;2.10;100.00
5484;BME280;2764;48.794;8.326;2022-12-07T06:03:41;100050.78;;;2.11;100.00
5484;BME280;2764;48.794;8.326;2022-12-07T06:04:45;100054.19;;;2.12;100.00
5484;BME280;2764;48.794;8.326;2022-12-07T06:05:47;100048.19;;;2.10;100.00
5484;BME280;2764;48.794;8.326;2022-12-07T06:06:50;100051.59;;;2.12;100.00